sensor_id;sensor_type;location;lat;lon;timestamp;P1;durP1;ratioP1;P2;durP2;ratioP2
16179;SDS011;8196;49.428;10.906;2022-11-13T00:00:06;13.60;;;11.20;;
16179;SDS011;8196;49.428;10.906;2022-11-13T00:02:33;18.50;;;11.37;;
16179;SDS011;8196;49.428;10.906;2022-11-13T00:05:00;16.93;;;10.57;;
16179;SDS011;8196;49.428;10.906;2022-11-13T00:07:28;12.95;;;10.57;;
16179;SDS011;8196;49.428;10.906;2022-11-13T00:09:55;13.90;;;10.45;;
16179;SDS011;8196;49.428;10.906;2022-11-13T00:12:22;23.90;;;10.82;;
16179;SDS011;8196;49.428;10.906;2022-11-13T00:14:49;16.58;;;10.05;;
16179;SDS011;8196;49.428;10.906;2022-11-13T00:17:16;22.33;;;12.30;;
16179;SDS011;8196;49.428;10.906;2022-11-13T00:19:43;15.18;;;10.73;;
16179;SDS011;8196;49.428;10.906;2022-11-13T00:22:10;14.20;;;10.18;;
16179;SDS011;8196;49.428;10.906;2022-11-13T00:24:37;13.40;;;9.55;;
16179;SDS011;8196;49.428;10.906;2022-11-13T00:27:04;18.48;;;11.18;;
16179;SDS011;8196;49.428;10.906;2022-11-13T00:29:31;26.48;;;11.95;;
16179;SDS011;8196;49.428;10.906;2022-11-13T00:31:58;19.42;;;10.52;;
16179;SDS011;8196;49.428;10.906;2022-11-13T00:34:26;20.55;;;8.82;;
16179;SDS011;8196;49.428;10.906;2022-11-13T00:37:12;15.77;;;8.95;;
16179;SDS011;8196;49.428;10.906;2022-11-13T00:39:39;17.02;;;8.55;;
16179;SDS011;8196;49.428;10.906;2022-11-13T00:42:06;10.85;;;8.00;;
16179;SDS011;8196;49.428;10.906;2022-11-13T00:44:33;18.00;;;9.48;;
16179;SDS011;8196;49.428;10.906;2022-11-13T00:47:00;15.15;;;9.32;;
16179;SDS011;8196;49.428;10.906;2022-11-13T00:49:27;18.40;;;9.55;;
16179;SDS011;8196;49.428;10.906;2022-11-13T00:51:54;19.05;;;10.65;;
16179;SDS011;8196;49.428;10.906;2022-11-13T00:54:22;17.15;;;10.13;;
16179;SDS011;8196;49.428;10.906;2022-11-13T00:56:49;17.13;;;9.65;;
16179;SDS011;8196;49.428;10.906;2022-11-13T00:59:16;24.53;;;11.30;;
16179;SDS011;8196;49.428;10.906;2022-11-13T01:01:43;23.37;;;10.80;;
16179;SDS011;8196;49.428;10.906;2022-11-13T01:04:10;19.20;;;9.88;;
16179;SDS011;8196;49.428;10.906;2022-11-13T01:06:37;12.02;;;9.25;;
16179;SDS011;8196;49.428;10.906;2022-11-13T01:09:04;15.90;;;9.27;;
16179;SDS011;8196;49.428;10.906;2022-11-13T01:11:31;11.10;;;9.90;;
16179;SDS011;8196;49.428;10.906;2022-11-13T01:13:58;16.17;;;10.40;;
16179;SDS011;8196;49.428;10.906;2022-11-13T01:16:28;18.70;;;10.10;;
16179;SDS011;8196;49.428;10.906;2022-11-13T01:18:57;14.57;;;8.65;;
16179;SDS011;8196;49.428;10.906;2022-11-13T01:21:25;20.00;;;8.80;;
16179;SDS011;8196;49.428;10.906;2022-11-13T01:23:53;14.27;;;8.73;;
16179;SDS011;8196;49.428;10.906;2022-11-13T01:26:21;11.55;;;8.57;;
16179;SDS011;8196;49.428;10.906;2022-11-13T01:28:49;14.73;;;8.93;;
16179;SDS011;8196;49.428;10.906;2022-11-13T01:31:17;14.23;;;8.45;;
16179;SDS011;8196;49.428;10.906;2022-11-13T01:33:45;12.70;;;8.00;;
16179;SDS011;8196;49.428;10.906;2022-11-13T01:36:14;11.32;;;8.50;;
16179;SDS011;8196;49.428;10.906;2022-11-13T01:38:42;12.38;;;9.18;;
16179;SDS011;8196;49.428;10.906;2022-11-13T01:41:14;14.00;;;9.77;;
16179;SDS011;8196;49.428;10.906;2022-11-13T01:43:48;19.75;;;10.95;;
16179;SDS011;8196;49.428;10.906;2022-11-13T01:48:44;15.73;;;9.55;;
16179;SDS011;8196;49.428;10.906;2022-11-13T01:51:13;13.17;;;9.17;;
16179;SDS011;8196;49.428;10.906;2022-11-13T01:53:42;12.57;;;9.13;;
16179;SDS011;8196;49.428;10.906;2022-11-13T01:56:10;12.48;;;10.00;;
16179;SDS011;8196;49.428;10.906;2022-11-13T01:58:37;10.20;;;8.95;;
16179;SDS011;8196;49.428;10.906;2022-11-13T02:01:05;12.30;;;8.63;;
16179;SDS011;8196;49.428;10.906;2022-11-13T02:03:32;16.00;;;10.52;;
16179;SDS011;8196;49.428;10.906;2022-11-13T02:06:00;11.50;;;8.88;;
16179;SDS011;8196;49.428;10.906;2022-11-13T02:08:27;11.55;;;8.65;;
16179;SDS011;8196;49.428;10.906;2022-11-13T02:10:55;10.63;;;8.00;;
16179;SDS011;8196;49.428;10.906;2022-11-13T02:13:22;12.65;;;9.90;;
16179;SDS011;8196;49.428;10.906;2022-11-13T02:15:49;12.88;;;10.80;;
16179;SDS011;8196;49.428;10.906;2022-11-13T02:18:17;17.58;;;10.15;;
16179;SDS011;8196;49.428;10.906;2022-11-13T02:20:55;12.55;;;9.68;;
16179;SDS011;8196;49.428;10.906;2022-11-13T02:25:54;12.60;;;10.00;;
16179;SDS011;8196;49.428;10.906;2022-11-13T02:28:20;15.82;;;11.05;;
16179;SDS011;8196;49.428;10.906;2022-11-13T02:30:48;14.23;;;10.25;;
16179;SDS011;8196;49.428;10.906;2022-11-13T02:33:19;15.18;;;12.20;;
16179;SDS011;8196;49.428;10.906;2022-11-13T02:35:47;22.63;;;12.30;;
16179;SDS011;8196;49.428;10.906;2022-11-13T02:38:14;14.95;;;10.45;;
16179;SDS011;8196;49.428;10.906;2022-11-13T02:40:41;12.38;;;11.07;;
16179;SDS011;8196;49.428;10.906;2022-11-13T02:43:08;16.02;;;12.60;;
16179;SDS011;8196;49.428;10.906;2022-11-13T02:45:36;14.25;;;10.98;;
16179;SDS011;8196;49.428;10.906;2022-11-13T02:48:04;14.73;;;10.52;;
16179;SDS011;8196;49.428;10.906;2022-11-13T02:50:32;16.90;;;10.68;;
16179;SDS011;8196;49.428;10.906;2022-11-13T02:52:59;12.82;;;10.50;;
16179;SDS011;8196;49.428;10.906;2022-11-13T02:55:26;14.15;;;10.20;;
16179;SDS011;8196;49.428;10.906;2022-11-13T02:57:54;17.05;;;10.00;;
16179;SDS011;8196;49.428;10.906;2022-11-13T03:00:21;14.55;;;10.80;;
16179;SDS011;8196;49.428;10.906;2022-11-13T03:02:48;15.07;;;10.07;;
16179;SDS011;8196;49.428;10.906;2022-11-13T03:05:15;14.07;;;9.82;;
16179;SDS011;8196;49.428;10.906;2022-11-13T03:07:42;11.48;;;9.50;;
16179;SDS011;8196;49.428;10.906;2022-11-13T03:10:09;15.13;;;9.93;;
16179;SDS011;8196;49.428;10.906;2022-11-13T03:12:37;12.63;;;9.93;;
16179;SDS011;8196;49.428;10.906;2022-11-13T03:15:04;14.30;;;10.23;;
16179;SDS011;8196;49.428;10.906;2022-11-13T03:17:31;12.00;;;9.80;;
16179;SDS011;8196;49.428;10.906;2022-11-13T03:19:59;11.88;;;9.60;;
16179;SDS011;8196;49.428;10.906;2022-11-13T03:22:26;10.82;;;9.48;;
16179;SDS011;8196;49.428;10.906;2022-11-13T03:24:53;16.85;;;10.07;;
16179;SDS011;8196;49.428;10.906;2022-11-13T03:29:47;12.65;;;9.80;;
16179;SDS011;8196;49.428;10.906;2022-11-13T03:34:41;11.60;;;9.50;;
16179;SDS011;8196;49.428;10.906;2022-11-13T03:37:08;13.05;;;9.30;;
16179;SDS011;8196;49.428;10.906;2022-11-13T03:39:35;12.95;;;9.45;;
16179;SDS011;8196;49.428;10.906;2022-11-13T03:42:02;11.48;;;8.65;;
16179;SDS011;8196;49.428;10.906;2022-11-13T03:44:29;9.77;;;8.13;;
16179;SDS011;8196;49.428;10.906;2022-11-13T03:46:57;11.18;;;8.73;;
16179;SDS011;8196;49.428;10.906;2022-11-13T03:49:24;8.68;;;7.78;;
16179;SDS011;8196;49.428;10.906;2022-11-13T03:51:51;10.55;;;8.35;;
16179;SDS011;8196;49.428;10.906;2022-11-13T03:54:18;12.00;;;9.60;;
16179;SDS011;8196;49.428;10.906;2022-11-13T03:56:45;10.40;;;9.30;;
16179;SDS011;8196;49.428;10.906;2022-11-13T03:59:12;12.77;;;9.10;;
16179;SDS011;8196;49.428;10.906;2022-11-13T04:01:39;12.63;;;8.67;;
16179;SDS011;8196;49.428;10.906;2022-11-13T04:04:06;12.50;;;9.40;;
16179;SDS011;8196;49.428;10.906;2022-11-13T04:06:33;11.33;;;9.03;;
16179;SDS011;8196;49.428;10.906;2022-11-13T04:09:00;10.47;;;8.33;;
16179;SDS011;8196;49.428;10.906;2022-11-13T04:11:27;10.02;;;8.73;;
16179;SDS011;8196;49.428;10.906;2022-11-13T04:13:54;16.00;;;9.02;;
16179;SDS011;8196;49.428;10.906;2022-11-13T04:16:22;9.80;;;8.80;;
16179;SDS011;8196;49.428;10.906;2022-11-13T04:18:49;9.55;;;8.55;;
16179;SDS011;8196;49.428;10.906;2022-11-13T04:21:16;9.70;;;8.70;;
16179;SDS011;8196;49.428;10.906;2022-11-13T04:23:43;16.75;;;9.48;;
16179;SDS011;8196;49.428;10.906;2022-11-13T04:26:10;10.93;;;8.73;;
16179;SDS011;8196;49.428;10.906;2022-11-13T04:28:37;10.13;;;8.80;;
16179;SDS011;8196;49.428;10.906;2022-11-13T04:31:04;10.02;;;8.35;;
16179;SDS011;8196;49.428;10.906;2022-11-13T04:33:31;10.40;;;8.55;;
16179;SDS011;8196;49.428;10.906;2022-11-13T04:35:58;11.35;;;9.30;;
16179;SDS011;8196;49.428;10.906;2022-11-13T04:38:25;14.75;;;9.10;;
16179;SDS011;8196;49.428;10.906;2022-11-13T04:40:53;13.73;;;9.52;;
16179;SDS011;8196;49.428;10.906;2022-11-13T04:43:40;11.97;;;9.47;;
16179;SDS011;8196;49.428;10.906;2022-11-13T04:46:07;11.83;;;8.17;;
16179;SDS011;8196;49.428;10.906;2022-11-13T04:48:34;11.90;;;8.30;;
16179;SDS011;8196;49.428;10.906;2022-11-13T04:51:01;10.13;;;7.97;;
16179;SDS011;8196;49.428;10.906;2022-11-13T04:53:28;10.27;;;7.50;;
16179;SDS011;8196;49.428;10.906;2022-11-13T04:55:55;15.73;;;8.87;;
16179;SDS011;8196;49.428;10.906;2022-11-13T04:58:22;11.70;;;8.30;;
16179;SDS011;8196;49.428;10.906;2022-11-13T05:00:49;23.15;;;8.00;;
16179;SDS011;8196;49.428;10.906;2022-11-13T05:03:16;11.68;;;7.65;;
16179;SDS011;8196;49.428;10.906;2022-11-13T05:05:44;14.67;;;7.60;;
16179;SDS011;8196;49.428;10.906;2022-11-13T05:08:11;10.50;;;7.00;;
16179;SDS011;8196;49.428;10.906;2022-11-13T05:10:38;12.70;;;7.73;;
16179;SDS011;8196;49.428;10.906;2022-11-13T05:13:05;12.60;;;7.60;;
16179;SDS011;8196;49.428;10.906;2022-11-13T05:15:32;12.23;;;8.40;;
16179;SDS011;8196;49.428;10.906;2022-11-13T05:17:59;11.47;;;8.40;;
16179;SDS011;8196;49.428;10.906;2022-11-13T05:20:26;12.82;;;7.30;;
16179;SDS011;8196;49.428;10.906;2022-11-13T05:22:53;7.57;;;6.75;;
16179;SDS011;8196;49.428;10.906;2022-11-13T05:25:20;11.27;;;7.30;;
16179;SDS011;8196;49.428;10.906;2022-11-13T05:27:47;9.32;;;6.85;;
16179;SDS011;8196;49.428;10.906;2022-11-13T05:30:14;9.77;;;7.30;;
16179;SDS011;8196;49.428;10.906;2022-11-13T05:32:42;8.27;;;7.20;;
16179;SDS011;8196;49.428;10.906;2022-11-13T05:35:08;14.68;;;8.40;;
16179;SDS011;8196;49.428;10.906;2022-11-13T05:37:35;9.65;;;7.40;;
16179;SDS011;8196;49.428;10.906;2022-11-13T05:40:03;10.07;;;7.10;;
16179;SDS011;8196;49.428;10.906;2022-11-13T05:42:30;15.53;;;8.20;;
16179;SDS011;8196;49.428;10.906;2022-11-13T05:44:57;18.00;;;6.87;;
16179;SDS011;8196;49.428;10.906;2022-11-13T05:47:24;9.73;;;6.93;;
16179;SDS011;8196;49.428;10.906;2022-11-13T05:49:51;12.38;;;7.45;;
16179;SDS011;8196;49.428;10.906;2022-11-13T05:52:18;11.02;;;7.15;;
16179;SDS011;8196;49.428;10.906;2022-11-13T05:54:45;8.98;;;6.32;;
16179;SDS011;8196;49.428;10.906;2022-11-13T05:57:12;14.05;;;7.45;;
16179;SDS011;8196;49.428;10.906;2022-11-13T05:59:39;14.52;;;6.97;;
16179;SDS011;8196;49.428;10.906;2022-11-13T06:02:05;7.20;;;5.77;;
16179;SDS011;8196;49.428;10.906;2022-11-13T06:04:33;9.90;;;5.73;;
16179;SDS011;8196;49.428;10.906;2022-11-13T06:07:00;10.18;;;5.85;;
16179;SDS011;8196;49.428;10.906;2022-11-13T06:09:27;12.43;;;7.90;;
16179;SDS011;8196;49.428;10.906;2022-11-13T06:11:54;10.02;;;6.32;;
16179;SDS011;8196;49.428;10.906;2022-11-13T06:14:21;10.88;;;7.35;;
16179;SDS011;8196;49.428;10.906;2022-11-13T06:16:48;13.00;;;8.32;;
16179;SDS011;8196;49.428;10.906;2022-11-13T06:19:15;11.50;;;7.20;;
16179;SDS011;8196;49.428;10.906;2022-11-13T06:21:42;8.70;;;6.22;;
16179;SDS011;8196;49.428;10.906;2022-11-13T06:24:10;8.25;;;6.55;;
16179;SDS011;8196;49.428;10.906;2022-11-13T06:26:38;11.45;;;6.72;;
16179;SDS011;8196;49.428;10.906;2022-11-13T06:29:06;10.20;;;7.00;;
16179;SDS011;8196;49.428;10.906;2022-11-13T06:31:33;14.93;;;6.50;;
16179;SDS011;8196;49.428;10.906;2022-11-13T06:34:01;11.40;;;6.57;;
16179;SDS011;8196;49.428;10.906;2022-11-13T06:36:30;14.70;;;7.43;;
16179;SDS011;8196;49.428;10.906;2022-11-13T06:38:57;13.18;;;7.60;;
16179;SDS011;8196;49.428;10.906;2022-11-13T06:41:25;14.40;;;7.10;;
16179;SDS011;8196;49.428;10.906;2022-11-13T06:43:54;11.35;;;6.68;;
16179;SDS011;8196;49.428;10.906;2022-11-13T06:46:28;10.32;;;6.75;;
16179;SDS011;8196;49.428;10.906;2022-11-13T06:48:55;13.50;;;6.97;;
16179;SDS011;8196;49.428;10.906;2022-11-13T06:51:25;17.23;;;7.28;;
16179;SDS011;8196;49.428;10.906;2022-11-13T06:53:53;15.73;;;6.75;;
16179;SDS011;8196;49.428;10.906;2022-11-13T06:56:20;9.17;;;5.93;;
16179;SDS011;8196;49.428;10.906;2022-11-13T06:58:47;7.97;;;5.15;;
16179;SDS011;8196;49.428;10.906;2022-11-13T07:01:17;7.55;;;5.20;;
16179;SDS011;8196;49.428;10.906;2022-11-13T07:03:44;5.97;;;5.17;;
16179;SDS011;8196;49.428;10.906;2022-11-13T07:06:13;6.40;;;5.30;;
16179;SDS011;8196;49.428;10.906;2022-11-13T07:08:41;8.68;;;6.38;;
16179;SDS011;8196;49.428;10.906;2022-11-13T07:11:09;9.10;;;6.40;;
16179;SDS011;8196;49.428;10.906;2022-11-13T07:13:37;9.27;;;7.13;;
16179;SDS011;8196;49.428;10.906;2022-11-13T07:16:05;7.63;;;6.70;;
16179;SDS011;8196;49.428;10.906;2022-11-13T07:18:42;8.43;;;6.45;;
16179;SDS011;8196;49.428;10.906;2022-11-13T07:21:10;5.80;;;5.28;;
16179;SDS011;8196;49.428;10.906;2022-11-13T07:23:38;6.18;;;5.50;;
16179;SDS011;8196;49.428;10.906;2022-11-13T07:26:09;7.28;;;6.57;;
16179;SDS011;8196;49.428;10.906;2022-11-13T07:28:36;6.88;;;6.22;;
16179;SDS011;8196;49.428;10.906;2022-11-13T07:31:04;7.47;;;6.78;;
16179;SDS011;8196;49.428;10.906;2022-11-13T07:33:31;9.52;;;7.90;;
16179;SDS011;8196;49.428;10.906;2022-11-13T07:35:58;9.25;;;8.15;;
16179;SDS011;8196;49.428;10.906;2022-11-13T07:38:25;8.47;;;7.53;;
16179;SDS011;8196;49.428;10.906;2022-11-13T07:40:52;9.10;;;7.73;;
16179;SDS011;8196;49.428;10.906;2022-11-13T07:43:19;12.68;;;9.85;;
16179;SDS011;8196;49.428;10.906;2022-11-13T07:45:47;13.43;;;9.73;;
16179;SDS011;8196;49.428;10.906;2022-11-13T07:48:20;10.32;;;8.50;;
16179;SDS011;8196;49.428;10.906;2022-11-13T07:50:47;9.73;;;7.85;;
16179;SDS011;8196;49.428;10.906;2022-11-13T07:53:15;19.23;;;13.13;;
16179;SDS011;8196;49.428;10.906;2022-11-13T07:55:42;13.60;;;10.60;;
16179;SDS011;8196;49.428;10.906;2022-11-13T07:58:09;12.13;;;9.63;;
16179;SDS011;8196;49.428;10.906;2022-11-13T08:00:37;9.23;;;7.93;;
16179;SDS011;8196;49.428;10.906;2022-11-13T08:03:06;7.65;;;6.85;;
16179;SDS011;8196;49.428;10.906;2022-11-13T08:05:33;8.45;;;7.65;;
16179;SDS011;8196;49.428;10.906;2022-11-13T08:08:01;8.30;;;7.40;;
16179;SDS011;8196;49.428;10.906;2022-11-13T08:10:28;8.60;;;7.77;;
16179;SDS011;8196;49.428;10.906;2022-11-13T08:12:56;7.55;;;6.93;;
16179;SDS011;8196;49.428;10.906;2022-11-13T08:15:24;7.65;;;6.95;;
16179;SDS011;8196;49.428;10.906;2022-11-13T08:17:52;8.87;;;7.97;;
16179;SDS011;8196;49.428;10.906;2022-11-13T08:20:20;9.30;;;8.40;;
16179;SDS011;8196;49.428;10.906;2022-11-13T08:22:47;12.35;;;9.85;;
16179;SDS011;8196;49.428;10.906;2022-11-13T08:25:14;14.07;;;11.23;;
16179;SDS011;8196;49.428;10.906;2022-11-13T08:27:41;16.60;;;13.38;;
16179;SDS011;8196;49.428;10.906;2022-11-13T08:30:09;17.05;;;13.68;;
16179;SDS011;8196;49.428;10.906;2022-11-13T08:32:36;17.38;;;13.57;;
16179;SDS011;8196;49.428;10.906;2022-11-13T08:35:03;10.32;;;9.15;;
16179;SDS011;8196;49.428;10.906;2022-11-13T08:37:31;12.07;;;10.27;;
16179;SDS011;8196;49.428;10.906;2022-11-13T08:39:58;13.00;;;11.30;;
16179;SDS011;8196;49.428;10.906;2022-11-13T08:42:25;10.38;;;9.27;;
16179;SDS011;8196;49.428;10.906;2022-11-13T08:44:52;10.25;;;9.20;;
16179;SDS011;8196;49.428;10.906;2022-11-13T08:47:19;11.13;;;10.00;;
16179;SDS011;8196;49.428;10.906;2022-11-13T08:49:53;14.25;;;11.70;;
16179;SDS011;8196;49.428;10.906;2022-11-13T08:52:21;13.30;;;10.90;;
16179;SDS011;8196;49.428;10.906;2022-11-13T08:54:48;12.90;;;10.67;;
16179;SDS011;8196;49.428;10.906;2022-11-13T08:57:15;16.08;;;12.57;;
16179;SDS011;8196;49.428;10.906;2022-11-13T08:59:42;15.15;;;12.60;;
16179;SDS011;8196;49.428;10.906;2022-11-13T09:02:11;14.85;;;12.23;;
16179;SDS011;8196;49.428;10.906;2022-11-13T09:04:40;12.70;;;11.05;;
16179;SDS011;8196;49.428;10.906;2022-11-13T09:07:07;11.27;;;9.57;;
16179;SDS011;8196;49.428;10.906;2022-11-13T09:09:34;10.70;;;9.60;;
16179;SDS011;8196;49.428;10.906;2022-11-13T09:12:02;10.15;;;9.10;;
16179;SDS011;8196;49.428;10.906;2022-11-13T09:14:29;10.30;;;9.23;;
16179;SDS011;8196;49.428;10.906;2022-11-13T09:16:56;10.50;;;9.50;;
16179;SDS011;8196;49.428;10.906;2022-11-13T09:19:24;10.90;;;9.80;;
16179;SDS011;8196;49.428;10.906;2022-11-13T09:21:51;9.40;;;8.50;;
16179;SDS011;8196;49.428;10.906;2022-11-13T09:24:18;8.50;;;7.70;;
16179;SDS011;8196;49.428;10.906;2022-11-13T09:26:45;8.20;;;7.50;;
16179;SDS011;8196;49.428;10.906;2022-11-13T09:29:12;7.05;;;6.45;;
16179;SDS011;8196;49.428;10.906;2022-11-13T09:31:39;8.20;;;7.40;;
16179;SDS011;8196;49.428;10.906;2022-11-13T09:34:07;7.55;;;6.85;;
16179;SDS011;8196;49.428;10.906;2022-11-13T09:36:34;7.90;;;7.10;;
16179;SDS011;8196;49.428;10.906;2022-11-13T09:39:02;7.75;;;6.97;;
16179;SDS011;8196;49.428;10.906;2022-11-13T09:41:32;8.90;;;7.95;;
16179;SDS011;8196;49.428;10.906;2022-11-13T09:44:01;9.20;;;8.30;;
16179;SDS011;8196;49.428;10.906;2022-11-13T09:49:21;8.73;;;7.82;;
16179;SDS011;8196;49.428;10.906;2022-11-13T09:51:50;9.63;;;7.53;;
16179;SDS011;8196;49.428;10.906;2022-11-13T09:54:18;8.50;;;7.63;;
16179;SDS011;8196;49.428;10.906;2022-11-13T09:56:50;8.60;;;7.32;;
16179;SDS011;8196;49.428;10.906;2022-11-13T10:01:50;7.43;;;6.77;;
16179;SDS011;8196;49.428;10.906;2022-11-13T10:04:23;7.22;;;6.13;;
16179;SDS011;8196;49.428;10.906;2022-11-13T10:09:35;7.05;;;6.20;;
16179;SDS011;8196;49.428;10.906;2022-11-13T10:12:05;7.63;;;6.60;;
16179;SDS011;8196;49.428;10.906;2022-11-13T10:14:37;7.07;;;6.35;;
16179;SDS011;8196;49.428;10.906;2022-11-13T10:17:10;6.63;;;6.03;;
16179;SDS011;8196;49.428;10.906;2022-11-13T10:19:44;6.70;;;6.10;;
16179;SDS011;8196;49.428;10.906;2022-11-13T10:25:04;6.75;;;6.15;;
16179;SDS011;8196;49.428;10.906;2022-11-13T10:27:32;7.17;;;6.47;;
16179;SDS011;8196;49.428;10.906;2022-11-13T10:29:59;7.18;;;6.47;;
16179;SDS011;8196;49.428;10.906;2022-11-13T10:32:28;7.93;;;7.13;;
16179;SDS011;8196;49.428;10.906;2022-11-13T10:34:59;7.50;;;6.80;;
16179;SDS011;8196;49.428;10.906;2022-11-13T10:37:44;8.90;;;8.10;;
16179;SDS011;8196;49.428;10.906;2022-11-13T10:40:30;7.55;;;6.85;;
16179;SDS011;8196;49.428;10.906;2022-11-13T10:45:32;7.72;;;6.95;;
16179;SDS011;8196;49.428;10.906;2022-11-13T10:47:59;8.67;;;7.80;;
16179;SDS011;8196;49.428;10.906;2022-11-13T10:50:30;9.85;;;8.85;;
16179;SDS011;8196;49.428;10.906;2022-11-13T10:52:58;8.80;;;8.00;;
16179;SDS011;8196;49.428;10.906;2022-11-13T10:55:34;7.87;;;6.70;;
16179;SDS011;8196;49.428;10.906;2022-11-13T10:58:10;7.47;;;6.75;;
16179;SDS011;8196;49.428;10.906;2022-11-13T11:00:38;7.32;;;6.63;;
16179;SDS011;8196;49.428;10.906;2022-11-13T11:03:07;7.32;;;6.53;;
16179;SDS011;8196;49.428;10.906;2022-11-13T11:05:34;7.57;;;6.78;;
16179;SDS011;8196;49.428;10.906;2022-11-13T11:08:04;6.80;;;5.78;;
16179;SDS011;8196;49.428;10.906;2022-11-13T11:10:33;7.23;;;6.53;;
16179;SDS011;8196;49.428;10.906;2022-11-13T11:15:46;6.72;;;6.05;;
16179;SDS011;8196;49.428;10.906;2022-11-13T11:21:05;6.57;;;5.97;;
16179;SDS011;8196;49.428;10.906;2022-11-13T11:23:42;6.82;;;6.13;;
16179;SDS011;8196;49.428;10.906;2022-11-13T11:26:20;6.50;;;5.90;;
16179;SDS011;8196;49.428;10.906;2022-11-13T11:28:51;5.95;;;5.40;;
16179;SDS011;8196;49.428;10.906;2022-11-13T11:34:01;6.22;;;5.63;;
16179;SDS011;8196;49.428;10.906;2022-11-13T11:36:31;6.47;;;5.88;;
16179;SDS011;8196;49.428;10.906;2022-11-13T11:41:29;6.70;;;6.05;;
16179;SDS011;8196;49.428;10.906;2022-11-13T11:44:00;6.22;;;5.65;;
16179;SDS011;8196;49.428;10.906;2022-11-13T11:46:29;6.75;;;5.78;;
16179;SDS011;8196;49.428;10.906;2022-11-13T11:48:58;7.20;;;6.50;;
16179;SDS011;8196;49.428;10.906;2022-11-13T11:56:25;6.88;;;6.13;;
16179;SDS011;8196;49.428;10.906;2022-11-13T11:58:58;6.85;;;6.15;;
16179;SDS011;8196;49.428;10.906;2022-11-13T12:04:05;5.80;;;5.30;;
16179;SDS011;8196;49.428;10.906;2022-11-13T12:09:08;9.63;;;8.63;;
16179;SDS011;8196;49.428;10.906;2022-11-13T12:11:41;7.03;;;6.20;;
16179;SDS011;8196;49.428;10.906;2022-11-13T12:16:48;6.10;;;5.53;;
16179;SDS011;8196;49.428;10.906;2022-11-13T12:24:36;6.55;;;5.82;;
16179;SDS011;8196;49.428;10.906;2022-11-13T12:27:17;7.27;;;5.57;;
16179;SDS011;8196;49.428;10.906;2022-11-13T12:29:50;7.53;;;5.97;;
16179;SDS011;8196;49.428;10.906;2022-11-13T12:34:51;6.88;;;5.63;;
16179;SDS011;8196;49.428;10.906;2022-11-13T12:37:21;5.85;;;5.25;;
16179;SDS011;8196;49.428;10.906;2022-11-13T12:42:38;5.75;;;5.25;;
16179;SDS011;8196;49.428;10.906;2022-11-13T12:45:12;6.40;;;5.80;;
16179;SDS011;8196;49.428;10.906;2022-11-13T12:47:48;7.50;;;6.45;;
16179;SDS011;8196;49.428;10.906;2022-11-13T12:50:25;6.85;;;6.15;;
16179;SDS011;8196;49.428;10.906;2022-11-13T12:55:26;7.05;;;6.35;;
16179;SDS011;8196;49.428;10.906;2022-11-13T12:57:53;8.05;;;6.90;;
16179;SDS011;8196;49.428;10.906;2022-11-13T13:00:24;7.88;;;7.03;;
16179;SDS011;8196;49.428;10.906;2022-11-13T13:02:54;7.65;;;6.82;;
16179;SDS011;8196;49.428;10.906;2022-11-13T13:10:32;5.80;;;5.17;;
16179;SDS011;8196;49.428;10.906;2022-11-13T13:15:54;5.60;;;4.70;;
16179;SDS011;8196;49.428;10.906;2022-11-13T13:18:24;4.82;;;4.40;;
16179;SDS011;8196;49.428;10.906;2022-11-13T13:23:40;4.88;;;4.47;;
16179;SDS011;8196;49.428;10.906;2022-11-13T13:29:00;4.70;;;4.30;;
16179;SDS011;8196;49.428;10.906;2022-11-13T13:34:21;4.77;;;4.07;;
16179;SDS011;8196;49.428;10.906;2022-11-13T13:36:59;4.43;;;3.90;;
16179;SDS011;8196;49.428;10.906;2022-11-13T13:42:21;4.32;;;3.80;;
16179;SDS011;8196;49.428;10.906;2022-11-13T13:47:42;4.03;;;3.30;;
16179;SDS011;8196;49.428;10.906;2022-11-13T13:50:15;4.00;;;3.25;;
16179;SDS011;8196;49.428;10.906;2022-11-13T13:52:42;3.85;;;3.28;;
16179;SDS011;8196;49.428;10.906;2022-11-13T13:55:15;3.85;;;3.45;;
16179;SDS011;8196;49.428;10.906;2022-11-13T13:57:43;3.63;;;3.20;;
16179;SDS011;8196;49.428;10.906;2022-11-13T14:00:11;5.10;;;3.37;;
16179;SDS011;8196;49.428;10.906;2022-11-13T14:02:46;6.30;;;3.80;;
16179;SDS011;8196;49.428;10.906;2022-11-13T14:05:16;4.30;;;3.35;;
16179;SDS011;8196;49.428;10.906;2022-11-13T14:07:49;3.50;;;3.20;;
16179;SDS011;8196;49.428;10.906;2022-11-13T14:10:17;3.58;;;3.28;;
16179;SDS011;8196;49.428;10.906;2022-11-13T14:12:45;5.72;;;3.55;;
16179;SDS011;8196;49.428;10.906;2022-11-13T14:15:17;4.28;;;3.40;;
16179;SDS011;8196;49.428;10.906;2022-11-13T14:17:47;4.35;;;3.63;;
16179;SDS011;8196;49.428;10.906;2022-11-13T14:20:14;5.38;;;3.70;;
16179;SDS011;8196;49.428;10.906;2022-11-13T14:22:42;4.03;;;3.40;;
16179;SDS011;8196;49.428;10.906;2022-11-13T14:25:19;4.07;;;3.57;;
16179;SDS011;8196;49.428;10.906;2022-11-13T14:27:47;4.18;;;3.45;;
16179;SDS011;8196;49.428;10.906;2022-11-13T14:30:20;4.87;;;3.70;;
16179;SDS011;8196;49.428;10.906;2022-11-13T14:32:47;4.35;;;3.95;;
16179;SDS011;8196;49.428;10.906;2022-11-13T14:35:17;5.30;;;3.90;;
16179;SDS011;8196;49.428;10.906;2022-11-13T14:37:45;4.00;;;3.50;;
16179;SDS011;8196;49.428;10.906;2022-11-13T14:40:29;5.35;;;4.07;;
16179;SDS011;8196;49.428;10.906;2022-11-13T14:43:00;6.30;;;3.45;;
16179;SDS011;8196;49.428;10.906;2022-11-13T14:45:29;4.75;;;3.60;;
16179;SDS011;8196;49.428;10.906;2022-11-13T14:47:57;4.50;;;3.90;;
16179;SDS011;8196;49.428;10.906;2022-11-13T14:50:33;6.07;;;3.90;;
16179;SDS011;8196;49.428;10.906;2022-11-13T14:53:01;4.18;;;3.78;;
16179;SDS011;8196;49.428;10.906;2022-11-13T14:55:30;5.35;;;3.97;;
16179;SDS011;8196;49.428;10.906;2022-11-13T14:57:57;4.35;;;3.60;;
16179;SDS011;8196;49.428;10.906;2022-11-13T15:00:29;4.00;;;3.60;;
16179;SDS011;8196;49.428;10.906;2022-11-13T15:02:57;4.45;;;3.90;;
16179;SDS011;8196;49.428;10.906;2022-11-13T15:05:24;4.65;;;3.88;;
16179;SDS011;8196;49.428;10.906;2022-11-13T15:07:52;4.47;;;3.88;;
16179;SDS011;8196;49.428;10.906;2022-11-13T15:10:21;4.65;;;3.90;;
16179;SDS011;8196;49.428;10.906;2022-11-13T15:12:48;4.18;;;3.72;;
16179;SDS011;8196;49.428;10.906;2022-11-13T15:15:16;4.20;;;3.80;;
16179;SDS011;8196;49.428;10.906;2022-11-13T15:17:44;5.55;;;3.33;;
16179;SDS011;8196;49.428;10.906;2022-11-13T15:20:14;4.45;;;3.72;;
16179;SDS011;8196;49.428;10.906;2022-11-13T15:22:41;4.57;;;3.83;;
16179;SDS011;8196;49.428;10.906;2022-11-13T15:25:13;4.00;;;3.60;;
16179;SDS011;8196;49.428;10.906;2022-11-13T15:27:40;4.80;;;3.88;;
16179;SDS011;8196;49.428;10.906;2022-11-13T15:30:09;4.68;;;3.88;;
16179;SDS011;8196;49.428;10.906;2022-11-13T15:32:36;5.00;;;4.30;;
16179;SDS011;8196;49.428;10.906;2022-11-13T15:35:05;4.80;;;4.30;;
16179;SDS011;8196;49.428;10.906;2022-11-13T15:37:32;5.63;;;4.72;;
16179;SDS011;8196;49.428;10.906;2022-11-13T15:39:59;5.72;;;4.70;;
16179;SDS011;8196;49.428;10.906;2022-11-13T15:42:28;6.70;;;4.60;;
16179;SDS011;8196;49.428;10.906;2022-11-13T15:44:57;7.50;;;5.50;;
16179;SDS011;8196;49.428;10.906;2022-11-13T15:47:26;5.95;;;5.20;;
16179;SDS011;8196;49.428;10.906;2022-11-13T15:49:53;7.18;;;5.78;;
16179;SDS011;8196;49.428;10.906;2022-11-13T15:52:41;7.03;;;6.00;;
16179;SDS011;8196;49.428;10.906;2022-11-13T15:55:19;6.32;;;5.70;;
16179;SDS011;8196;49.428;10.906;2022-11-13T15:57:46;6.85;;;5.47;;
16179;SDS011;8196;49.428;10.906;2022-11-13T16:00:14;7.28;;;5.90;;
16179;SDS011;8196;49.428;10.906;2022-11-13T16:02:42;6.53;;;5.50;;
16179;SDS011;8196;49.428;10.906;2022-11-13T16:05:10;6.50;;;5.80;;
16179;SDS011;8196;49.428;10.906;2022-11-13T16:07:37;6.95;;;5.90;;